Terminal Aerodrome Forecast
Issued by NWS

Home | Current Version | Previous Version | Text Only | Print | Product List | Glossary On
Versions: 1 2 3 4 5 6 7 8 9 10 11 12 13 14
000
FTAK31 PAJN 261720
TAFAGY
TAF
PAGY 261720Z 2618/2718 21005KT P6SM OVC060
     FM262000 22012KT P6SM OVC035
     FM270300 21010KT P6SM -RA OVC035
      AMD LTD TO CLD VIS AND WIND=

USA.gov is the U.S. government's official web portal to all federal, state and local government web resources and services.